Nearby METAR Reports


KPAM - Tyndall AFB, FL, USA
Distance from station: SSE 4mi, 7km
Updated: Mon, 22-Oct-2018 3:55pm CDT
Partly cloudy
Partly cloudy
 Wind from E
Wind: E 7 mph , 11 km/h
Temperature: 75°F , 24°C
Dew Point: 55°F , 13°C
Humidity: 50%
Barometer: 30.16 inHg , 1021.3 hPa
Clouds: Partly cloudy
Visibility: 10 miles , 16 km
Cloud details: Partly cloudy 22000 ft
2018/10/22 20:55 KPAM 222055Z AUTO 10006KT 10SM SCT220 24/13 A3016 RMK AO2 SLP211 WND DATA ESTMD T02420128 56012
KECP - Panama City Beach, FL, USA
Distance from station: NW 20mi, 32km
Updated: Mon, 22-Oct-2018 2:53pm CDT
Clear
Clear
 Wind from NE
Wind: NE 6 mph , 9 km/h
Temperature: 77°F , 25°C
Dew Point: 54°F , 12°C
Humidity: 44%
Barometer: 30.14 inHg , 1020.7 hPa
Clouds: Clear
Visibility: 10 miles , 16 km
2018/10/22 19:53 KECP 221953Z 05005KT 10SM CLR 25/12 A3014
 
KAAF - Apalachicola, FL, USA
Distance from station: SE 43mi, 69km
Updated: Wed, 10-Oct-2018 11:53am CDT
NOT Current
Heavy rain, Overcast
Heavy rain, Overcast
 Wind from S
Wind: S 58 mph , 93 km/h, Gust: 84 mph , 135 km/h
Temperature: 81°F , 27°C
Barometer: 29.12 inHg , 986.1 hPa
Summary: Heavy rain
Clouds: Overcast
Visibility: 1/4 mile , 2 km
Cloud details: Mostly cloudy 900 ft
Overcast 1500 ft
2018/10/10 16:53 KAAF 101653Z AUTO 17050G73KT 1/4SM +RA BKN009 OVC015 27/ A2912 RMK AO2 PK WND 15077/1631 LTG DSNT W AND NW PRESFR SLP859 P0048 T0267
KMAI - Marianna, FL, USA
Distance from station: NNE 55mi, 88km
Updated: Wed, 10-Oct-2018 11:53am CDT
NOT Current
Rain, Mist, Overcast
Rain, Mist, Overcast
 Wind from ENE
Wind: ENE 26 mph , 43 km/h, Gust: 33 mph , 54 km/h
Temperature: 77°F , 25°C
Dew Point: 75°F , 24°C
Humidity: 94%
Barometer: 29.41 inHg , 995.9 hPa
Summary: Rain, Mist
Clouds: Overcast
Visibility: 6 miles , 10 km
Cloud details: Partly cloudy 1000 ft
Mostly cloudy 1700 ft
Overcast 3300 ft
2018/10/10 16:53 KMAI 101653Z AUTO 07023G29KT 6SM RA BR SCT010 BKN017 OVC033 25/24 A2941 RMK AO2 PK WND 07034/1634 PRESFR SLP956 P0030 T02500239
 
KDTS - Destin, FL, USA
Distance from station: WNW 56mi, 90km
Updated: Mon, 22-Oct-2018 3:53pm CDT
Clear
Clear
 Wind from NE
Wind: NE 6 mph , 9 km/h
Temperature: 73°F , 23°C
Dew Point: 57°F , 14°C
Humidity: 57%
Barometer: 30.14 inHg , 1020.7 hPa
Clouds: Clear
Visibility: 10 miles , 16 km
2018/10/22 20:53 KDTS 222053Z 05005KT 10SM CLR 23/14 A3014 RMK AO2 SLP207 T02330139 56012
KVPS - Valpariso-Eglin AFB, FL, USA
Distance from station: WNW 60mi, 97km
Updated: Mon, 22-Oct-2018 3:55pm CDT
Mostly cloudy
Mostly cloudy
 Wind from E
Wind: E 7 mph , 11 km/h
Temperature: 73°F , 23°C
Dew Point: 55°F , 13°C
Humidity: 53%
Barometer: 30.14 inHg , 1020.7 hPa
Clouds: Mostly cloudy
Visibility: 10 miles , 16 km
Cloud details: Partly cloudy 3600 ft
Mostly cloudy 18000 ft
Mostly cloudy 25000 ft
2018/10/22 20:55 KVPS 222055Z 09006KT 10SM SCT036 BKN180 BKN250 23/13 A3014 RMK AO2A SLP212 T02320128 55
 
KEGI - Duke Field, FL, USA
Distance from station: WNW 66mi, 105km
Updated: Mon, 22-Oct-2018 3:55pm CDT
Mostly cloudy
Mostly cloudy
 Wind from ESE
Wind: ESE 3 mph , 6 km/h
Temperature: 73°F , 23°C
Dew Point: 57°F , 14°C
Humidity: 57%
Barometer: 30.15 inHg , 1021 hPa
Clouds: Mostly cloudy
Visibility: 10 miles , 16 km
Cloud details: Mostly cloudy 3700 ft
Mostly cloudy 25000 ft
2018/10/22 20:55 KEGI 222055Z 11003KT 10SM BKN037 BKN250 23/14 A3015 RMK AO2A SLP211 T02340135 55012 $
KHRT - Hurlburt Field, FL, USA
Distance from station: WNW 67mi, 108km
Updated: Mon, 22-Oct-2018 2:56pm CDT
Clear
Clear
 Wind from E
Wind: E 8 mph , 13 km/h
Temperature: 73°F , 23°C
Dew Point: 46°F , 8°C
Humidity: 38%
Clouds: Clear
Visibility: 10 miles , 16 km
2018/10/22 19:56 KHRT 221956Z AUTO 10007KT 10SM CLR 23/08 M RMK AO2 SLPNO T02290082 $
 
KCEW - Crestview, FL, USA
Distance from station: NW 72mi, 115km
Updated: Mon, 22-Oct-2018 3:53pm CDT
Clear
Clear
 Wind from varies
Wind: varies 3 mph , 6 km/h
Temperature: 73°F , 23°C
Dew Point: 57°F , 14°C
Humidity: 57%
Barometer: 30.17 inHg , 1021.7 hPa
Clouds: Clear
Visibility: 10 miles , 16 km
2018/10/22 20:53 KCEW 222053Z AUTO VRB03KT 10SM CLR 23/14 A3017 RMK AO2 SLP214 T02280139 56013
KTLH - Tallahassee, FL, USA
Distance from station: ENE 77mi, 123km
Updated: Mon, 22-Oct-2018 3:53pm CDT
Overcast
Overcast
 Wind from ENE
Wind: ENE 8 mph , 13 km/h
Temperature: 75°F , 24°C
Dew Point: 55°F , 13°C
Humidity: 50%
Barometer: 30.16 inHg , 1021.3 hPa
Clouds: Overcast
Visibility: 10 miles , 16 km
Cloud details: Partly cloudy 5000 ft
Overcast 25000 ft
2018/10/22 20:53 KTLH 222053Z 07007KT 10SM SCT050 OVC250 24/13 A3016 RMK AO2 SLP210 T02390128 56013
 
KOZR - Cairns AAF, AL, USA
Distance from station: N 81mi, 130km
Updated: Mon, 22-Oct-2018 2:56pm CDT
Clear
Clear
 Wind from ESE
Wind: ESE 7 mph , 11 km/h
Temperature: 73°F , 23°C
Dew Point: 52°F , 11°C
Humidity: 47%
Barometer: 30.17 inHg , 1021.7 hPa
Clouds: Clear
Visibility: 10 miles , 16 km
2018/10/22 19:56 KOZR 221956Z AUTO 12006KT 10SM CLR 23/11 A3017 RMK AO2 SLP218 T02340114
KDHN - Dothan, AL, USA
Distance from station: N 83mi, 134km
Updated: Mon, 22-Oct-2018 3:53pm CDT
Few Clouds
Few Clouds
 Wind from SE
Wind: SE 6 mph , 9 km/h
Temperature: 73°F , 23°C
Dew Point: 50°F , 10°C
Humidity: 44%
Barometer: 30.20 inHg , 1022.7 hPa
Clouds: Few Clouds
Visibility: 10 miles , 16 km
Cloud details: Few Clouds 4900 ft
2018/10/22 20:53 KDHN 222053Z 13005KT 10SM FEW049 23/10 A3020 RMK AO2 SLP223 T02330100 56015